PWSweather.com
Personal Weather Stations
Station Observations

PoschiavoCH

Lat: 46.31962499999999, Lon: 10.066551000000004

Elevation: 3517

Station Type: WH 1080

http://www.meteoposchiavo.com

High Low Average
Temperature 63.0°F17.2°C 50.0°F10.0°C 56.2°F13.4°C
Dew Point 60.8°F16.0°C 49.7°F9.8°C 55.1°F12.8°C
Winds 2.3 mph 3.7 kmh Calm Calm Calm ECalm E
Wind Gusts 3.5 mph5.6 kmh -- --
Humidity 99% 78% 96%
Pressure 26.56 in899.4 mb 26.36 in892.7 mb -
Precipitation 1.20 in30.5 mm - -
Hour Temp Dew Point Humidity Winds Wind Gusts Pressure Precip Precip Rate Daily Precip Total
12:00 AM 54.0°F12.2°C 53.7°F12.1°C 99% Calm Calm -- 26.44 in895.4 mb - 0.06 in1.5 mm 0.06 in1.5 mm
12:10 AM 54.0°F12.2°C 53.7°F12.1°C 99% Calm Calm -- 26.44 in895.4 mb - 0.05 in1.3 mm 0.06 in1.5 mm
12:15 AM 54.0°F12.2°C 53.7°F12.1°C 99% Calm Calm -- 26.45 in895.7 mb - 0.05 in1.3 mm 0.06 in1.5 mm
12:20 AM 54.0°F12.2°C 53.7°F12.1°C 99% Calm Calm -- 26.45 in895.7 mb - 0.06 in1.5 mm 0.07 in1.8 mm
12:25 AM 54.0°F12.2°C 53.7°F12.1°C 99% Calm Calm -- 26.44 in895.4 mb - 0.02 in0.5 mm 0.07 in1.8 mm
12:30 AM 54.0°F12.2°C 53.7°F12.1°C 99% Calm Calm -- 26.44 in895.4 mb - 0.02 in0.5 mm 0.07 in1.8 mm
12:35 AM 54.0°F12.2°C 53.7°F12.1°C 99% Calm Calm -- 26.44 in895.4 mb - 0.02 in0.5 mm 0.07 in1.8 mm
12:40 AM 54.0°F12.2°C 53.7°F12.1°C 99% Calm Calm -- 26.44 in895.4 mb - 0.02 in0.5 mm 0.07 in1.8 mm
12:45 AM 54.0°F12.2°C 53.7°F12.1°C 99% Calm Calm -- 26.45 in895.7 mb - 0.02 in0.5 mm 0.07 in1.8 mm
12:50 AM 54.0°F12.2°C 53.7°F12.1°C 99% Calm Calm -- 26.43 in895.0 mb - 0.04 in1.0 mm 0.09 in2.3 mm
12:55 AM 54.0°F12.2°C 53.7°F12.1°C 99% Calm Calm -- 26.43 in895.0 mb - 0.03 in0.8 mm 0.09 in2.3 mm
01:00 AM 54.0°F12.2°C 53.7°F12.1°C 99% Calm Calm -- 26.42 in894.7 mb - 0.03 in0.8 mm 0.09 in2.3 mm
01:10 AM 54.0°F12.2°C 53.7°F12.1°C 99% Calm Calm -- 26.44 in895.4 mb - 0.03 in0.8 mm 0.09 in2.3 mm
01:15 AM 54.0°F12.2°C 53.7°F12.1°C 99% Calm Calm -- 26.42 in894.7 mb - 0.03 in0.8 mm 0.09 in2.3 mm
01:20 AM 54.0°F12.2°C 53.7°F12.1°C 99% Calm Calm -- 26.43 in895.0 mb - 0.03 in0.8 mm 0.10 in2.5 mm
01:25 AM 54.0°F12.2°C 53.7°F12.1°C 99% Calm Calm -- 26.44 in895.4 mb - 0.03 in0.8 mm 0.10 in2.5 mm
01:30 AM 54.0°F12.2°C 53.7°F12.1°C 99% Calm Calm -- 26.44 in895.4 mb - 0.03 in0.8 mm 0.10 in2.5 mm
01:35 AM 54.0°F12.2°C 53.7°F12.1°C 99% Calm Calm -- 26.44 in895.4 mb - 0.03 in0.8 mm 0.10 in2.5 mm
01:40 AM 54.0°F12.2°C 53.7°F12.1°C 99% Calm Calm -- 26.43 in895.0 mb - 0.03 in0.8 mm 0.10 in2.5 mm
01:45 AM 54.0°F12.2°C 53.7°F12.1°C 99% Calm Calm -- 26.43 in895.0 mb - 0.03 in0.8 mm 0.10 in2.5 mm
01:50 AM 54.0°F12.2°C 53.7°F12.1°C 99% Calm Calm -- 26.43 in895.0 mb - 0.02 in0.5 mm 0.11 in2.8 mm
01:55 AM 54.0°F12.2°C 53.7°F12.1°C 99% Calm Calm -- 26.44 in895.4 mb - 0.02 in0.5 mm 0.11 in2.8 mm
02:00 AM 54.0°F12.2°C 53.7°F12.1°C 99% Calm Calm -- 26.43 in895.0 mb - 0.02 in0.5 mm 0.11 in2.8 mm
02:10 AM 54.0°F12.2°C 53.7°F12.1°C 99% Calm Calm -- 26.43 in895.0 mb - 0.07 in1.8 mm 0.16 in4.1 mm
02:15 AM 55.7°F13.2°C 55.5°F13.1°C 99% Calm Calm -- 26.44 in895.4 mb - 0.12 in3.0 mm 0.21 in5.3 mm
02:20 AM 61.0°F16.1°C 54.8°F12.7°C 80% Calm Calm -- 26.47 in896.4 mb - 0.11 in2.8 mm 0.21 in5.3 mm
02:25 AM 54.0°F12.2°C 53.7°F12.1°C 99% Calm Calm -- 26.43 in895.0 mb - 0.11 in2.8 mm 0.21 in5.3 mm
02:30 AM 54.0°F12.2°C 53.7°F12.1°C 99% Calm Calm -- 26.43 in895.0 mb - 0.11 in2.8 mm 0.21 in5.3 mm
02:35 AM 54.0°F12.2°C 53.7°F12.1°C 99% Calm Calm -- 26.42 in894.7 mb - 0.11 in2.8 mm 0.21 in5.3 mm
02:40 AM 57.0°F13.9°C 55.3°F12.9°C 94% Calm Calm -- 26.49 in897.1 mb - 0.18 in4.6 mm 0.28 in7.1 mm
02:45 AM 54.7°F12.6°C 54.2°F12.3°C 98% Calm Calm -- 26.43 in895.0 mb - 0.18 in4.6 mm 0.28 in7.1 mm
02:50 AM 54.0°F12.2°C 53.7°F12.1°C 99% Calm Calm -- 26.41 in894.3 mb - 0.17 in4.3 mm 0.28 in7.1 mm
02:55 AM 54.0°F12.2°C 53.7°F12.1°C 99% Calm Calm -- 26.41 in894.3 mb - 0.17 in4.3 mm 0.28 in7.1 mm
03:00 AM 54.0°F12.2°C 53.7°F12.1°C 99% Calm Calm -- 26.41 in894.3 mb - 0.17 in4.3 mm 0.28 in7.1 mm
03:10 AM 54.0°F12.2°C 53.7°F12.1°C 99% Calm Calm -- 26.41 in894.3 mb - 0.22 in5.6 mm 0.38 in9.7 mm
03:15 AM 54.0°F12.2°C 53.7°F12.1°C 99% Calm Calm -- 26.41 in894.3 mb - 0.22 in5.6 mm 0.38 in9.7 mm
03:20 AM 54.0°F12.2°C 53.7°F12.1°C 99% Calm Calm -- 26.41 in894.3 mb - 0.17 in4.3 mm 0.38 in9.7 mm
03:25 AM 54.0°F12.2°C 53.7°F12.1°C 99% Calm Calm -- 26.40 in894.0 mb - 0.17 in4.3 mm 0.38 in9.7 mm
03:30 AM 54.0°F12.2°C 53.7°F12.1°C 99% Calm Calm -- 26.40 in894.0 mb - 0.17 in4.3 mm 0.38 in9.7 mm
03:35 AM 54.0°F12.2°C 53.7°F12.1°C 99% Calm Calm -- 26.40 in894.0 mb - 0.17 in4.3 mm 0.38 in9.7 mm
03:40 AM 54.0°F12.2°C 53.7°F12.1°C 99% Calm Calm -- 26.39 in893.7 mb - 0.10 in2.5 mm 0.38 in9.7 mm
03:45 AM 54.0°F12.2°C 53.7°F12.1°C 99% Calm Calm -- 26.40 in894.0 mb - 0.10 in2.5 mm 0.38 in9.7 mm
03:50 AM 54.0°F12.2°C 53.7°F12.1°C 99% Calm Calm -- 26.39 in893.7 mb - 0.10 in2.5 mm 0.38 in9.7 mm
03:55 AM 54.0°F12.2°C 53.7°F12.1°C 99% Calm Calm -- 26.39 in893.7 mb - 0.10 in2.5 mm 0.38 in9.7 mm
04:00 AM 54.0°F12.2°C 53.7°F12.1°C 99% Calm Calm -- 26.39 in893.7 mb - 0.10 in2.5 mm 0.38 in9.7 mm
04:10 AM 54.0°F12.2°C 53.7°F12.1°C 99% Calm Calm -- 26.38 in893.3 mb - 0.00 in0.0 mm 0.38 in9.7 mm
04:15 AM 54.0°F12.2°C 53.7°F12.1°C 99% Calm Calm -- 26.38 in893.3 mb - 0.00 in0.0 mm 0.38 in9.7 mm
04:20 AM 54.0°F12.2°C 53.7°F12.1°C 99% Calm Calm -- 26.38 in893.3 mb - 0.00 in0.0 mm 0.38 in9.7 mm
04:25 AM 54.0°F12.2°C 53.7°F12.1°C 99% Calm Calm -- 26.38 in893.3 mb - 0.00 in0.0 mm 0.38 in9.7 mm
04:30 AM 54.0°F12.2°C 53.7°F12.1°C 99% Calm Calm -- 26.39 in893.7 mb - 0.00 in0.0 mm 0.38 in9.7 mm
04:35 AM 55.0°F12.8°C 54.7°F12.6°C 99% Calm Calm -- 26.38 in893.3 mb - 0.00 in0.0 mm 0.38 in9.7 mm
04:40 AM 55.0°F12.8°C 54.7°F12.6°C 99% Calm Calm -- 26.38 in893.3 mb - 0.00 in0.0 mm 0.38 in9.7 mm
04:45 AM 55.0°F12.8°C 54.7°F12.6°C 99% Calm Calm -- 26.37 in893.0 mb - 0.00 in0.0 mm 0.38 in9.7 mm
04:50 AM 55.0°F12.8°C 54.7°F12.6°C 99% Calm Calm -- 26.36 in892.7 mb - 0.00 in0.0 mm 0.38 in9.7 mm
04:55 AM 55.0°F12.8°C 54.7°F12.6°C 99% Calm Calm -- 26.36 in892.7 mb - 0.00 in0.0 mm 0.38 in9.7 mm
05:00 AM 55.0°F12.8°C 54.7°F12.6°C 99% Calm Calm -- 26.37 in893.0 mb - 0.00 in0.0 mm 0.38 in9.7 mm
05:10 AM 55.0°F12.8°C 54.7°F12.6°C 99% Calm Calm -- 26.37 in893.0 mb - 0.00 in0.0 mm 0.38 in9.7 mm
05:15 AM 55.0°F12.8°C 54.7°F12.6°C 99% Calm Calm -- 26.37 in893.0 mb - 0.00 in0.0 mm 0.38 in9.7 mm
05:20 AM 55.0°F12.8°C 54.7°F12.6°C 99% Calm Calm -- 26.37 in893.0 mb - 0.00 in0.0 mm 0.38 in9.7 mm
05:25 AM 55.0°F12.8°C 54.7°F12.6°C 99% Calm Calm -- 26.37 in893.0 mb - 0.00 in0.0 mm 0.38 in9.7 mm
05:30 AM 55.0°F12.8°C 54.7°F12.6°C 99% Calm Calm -- 26.37 in893.0 mb - 0.00 in0.0 mm 0.38 in9.7 mm
05:35 AM 55.0°F12.8°C 54.7°F12.6°C 99% Calm Calm -- 26.38 in893.3 mb - 0.00 in0.0 mm 0.38 in9.7 mm
05:40 AM 56.0°F13.3°C 55.7°F13.2°C 99% Calm Calm -- 26.37 in893.0 mb - 0.00 in0.0 mm 0.38 in9.7 mm
05:45 AM 56.0°F13.3°C 55.7°F13.2°C 99% Calm Calm -- 26.37 in893.0 mb - 0.00 in0.0 mm 0.38 in9.7 mm
05:50 AM 56.0°F13.3°C 55.7°F13.2°C 99% Calm Calm -- 26.37 in893.0 mb - 0.00 in0.0 mm 0.38 in9.7 mm
05:55 AM 56.0°F13.3°C 55.7°F13.2°C 99% Calm Calm -- 26.38 in893.3 mb - 0.00 in0.0 mm 0.38 in9.7 mm
06:00 AM 56.0°F13.3°C 55.7°F13.2°C 99% Calm Calm -- 26.36 in892.7 mb - 0.00 in0.0 mm 0.38 in9.7 mm
06:10 AM 56.0°F13.3°C 55.7°F13.2°C 99% Calm Calm -- 26.38 in893.3 mb - 0.00 in0.0 mm 0.38 in9.7 mm
06:15 AM 56.0°F13.3°C 55.7°F13.2°C 99% Calm Calm -- 26.38 in893.3 mb - 0.00 in0.0 mm 0.38 in9.7 mm
06:20 AM 56.0°F13.3°C 55.7°F13.2°C 99% Calm Calm -- 26.38 in893.3 mb - 0.00 in0.0 mm 0.38 in9.7 mm
06:25 AM 56.0°F13.3°C 55.7°F13.2°C 99% Calm Calm -- 26.37 in893.0 mb - 0.00 in0.0 mm 0.38 in9.7 mm
06:30 AM 57.0°F13.9°C 56.7°F13.7°C 99% Calm Calm -- 26.38 in893.3 mb - 0.00 in0.0 mm 0.38 in9.7 mm
06:35 AM 57.0°F13.9°C 56.7°F13.7°C 99% Calm Calm -- 26.38 in893.3 mb - 0.00 in0.0 mm 0.38 in9.7 mm
06:40 AM 57.0°F13.9°C 56.7°F13.7°C 99% Calm Calm -- 26.38 in893.3 mb - 0.00 in0.0 mm 0.38 in9.7 mm
06:45 AM 57.0°F13.9°C 56.7°F13.7°C 99% Calm Calm -- 26.39 in893.7 mb - 0.00 in0.0 mm 0.38 in9.7 mm
06:50 AM 57.0°F13.9°C 56.7°F13.7°C 99% Calm Calm -- 26.39 in893.7 mb - 0.00 in0.0 mm 0.38 in9.7 mm
06:55 AM 56.0°F13.3°C 55.7°F13.2°C 99% Calm Calm -- 26.39 in893.7 mb - 0.00 in0.0 mm 0.38 in9.7 mm
07:00 AM 57.0°F13.9°C 56.7°F13.7°C 99% Calm Calm -- 26.39 in893.7 mb - 0.00 in0.0 mm 0.38 in9.7 mm
07:10 AM 56.0°F13.3°C 55.7°F13.2°C 99% Calm Calm -- 26.38 in893.3 mb - 0.00 in0.0 mm 0.38 in9.7 mm
07:15 AM 56.0°F13.3°C 55.7°F13.2°C 99% Calm Calm 1.2 mph1.9 kmh 26.38 in893.3 mb - 0.00 in0.0 mm 0.38 in9.7 mm
07:20 AM 56.0°F13.3°C 55.7°F13.2°C 99% Calm Calm 1.2 mph1.9 kmh 26.38 in893.3 mb - 0.00 in0.0 mm 0.38 in9.7 mm
07:25 AM 56.0°F13.3°C 55.4°F13.0°C 98% Calm Calm -- 26.38 in893.3 mb - 0.00 in0.0 mm 0.38 in9.7 mm
07:30 AM 57.0°F13.9°C 55.6°F13.1°C 95% Calm Calm -- 26.39 in893.7 mb - 0.00 in0.0 mm 0.38 in9.7 mm
07:35 AM 57.0°F13.9°C 56.2°F13.4°C 97% Calm Calm 1.2 mph1.9 kmh 26.39 in893.7 mb - 0.01 in0.3 mm 0.39 in9.9 mm
07:40 AM 58.0°F14.4°C 56.3°F13.5°C 94% Calm Calm -- 26.38 in893.3 mb - 0.01 in0.3 mm 0.39 in9.9 mm
07:45 AM 58.0°F14.4°C 56.3°F13.5°C 94% Calm Calm 1.2 mph1.9 kmh 26.38 in893.3 mb - 0.01 in0.3 mm 0.39 in9.9 mm
07:50 AM 58.0°F14.4°C 56.3°F13.5°C 94% Calm Calm 1.2 mph1.9 kmh 26.39 in893.7 mb - 0.01 in0.3 mm 0.39 in9.9 mm
07:55 AM 59.0°F15.0°C 57.3°F14.1°C 94% Calm Calm 1.2 mph1.9 kmh 26.38 in893.3 mb - 0.01 in0.3 mm 0.39 in9.9 mm
08:00 AM 59.0°F15.0°C 57.0°F13.9°C 93% Calm Calm 1.2 mph1.9 kmh 26.39 in893.7 mb - 0.01 in0.3 mm 0.39 in9.9 mm
08:10 AM 59.0°F15.0°C 55.8°F13.2°C 89% 2.3 mph N3.7 kmh N 2.3 mph3.7 kmh 26.38 in893.3 mb - 0.01 in0.3 mm 0.39 in9.9 mm
08:15 AM 59.0°F15.0°C 55.8°F13.2°C 89% 2.3 mph N3.7 kmh N 2.3 mph3.7 kmh 26.38 in893.3 mb - 0.01 in0.3 mm 0.39 in9.9 mm
08:20 AM 59.0°F15.0°C 56.1°F13.4°C 90% Calm Calm 1.2 mph1.9 kmh 26.39 in893.7 mb - 0.01 in0.3 mm 0.39 in9.9 mm
08:25 AM 59.0°F15.0°C 56.7°F13.7°C 92% 2.3 mph N3.7 kmh N 3.5 mph5.6 kmh 26.39 in893.7 mb - 0.01 in0.3 mm 0.39 in9.9 mm
08:30 AM 59.0°F15.0°C 56.4°F13.6°C 91% 1.2 mph NE1.9 kmh NE 1.2 mph1.9 kmh 26.38 in893.3 mb - 0.01 in0.3 mm 0.39 in9.9 mm
08:35 AM 59.0°F15.0°C 56.4°F13.6°C 91% 1.2 mph NE1.9 kmh NE 1.2 mph1.9 kmh 26.37 in893.0 mb - 0.00 in0.0 mm 0.39 in9.9 mm
08:40 AM 59.0°F15.0°C 56.1°F13.4°C 90% 1.2 mph NW1.9 kmh NW 1.2 mph1.9 kmh 26.38 in893.3 mb - 0.00 in0.0 mm 0.39 in9.9 mm
08:45 AM 59.0°F15.0°C 55.8°F13.2°C 89% 1.2 mph W1.9 kmh W 1.2 mph1.9 kmh 26.38 in893.3 mb - 0.00 in0.0 mm 0.39 in9.9 mm
08:50 AM 60.0°F15.6°C 57.1°F13.9°C 90% Calm Calm -- 26.38 in893.3 mb - 0.00 in0.0 mm 0.39 in9.9 mm
08:55 AM 60.0°F15.6°C 56.7°F13.7°C 89% 2.3 mph N3.7 kmh N 3.5 mph5.6 kmh 26.38 in893.3 mb - 0.00 in0.0 mm 0.39 in9.9 mm
09:00 AM 59.0°F15.0°C 56.1°F13.4°C 90% 2.3 mph N3.7 kmh N 3.5 mph5.6 kmh 26.39 in893.7 mb - 0.00 in0.0 mm 0.39 in9.9 mm
09:10 AM 59.0°F15.0°C 56.4°F13.6°C 91% 2.3 mph NNE3.7 kmh NNE 2.3 mph3.7 kmh 26.39 in893.7 mb - 0.00 in0.0 mm 0.39 in9.9 mm
09:15 AM 59.0°F15.0°C 55.8°F13.2°C 89% 1.2 mph W1.9 kmh W 1.2 mph1.9 kmh 26.38 in893.3 mb - 0.00 in0.0 mm 0.39 in9.9 mm
09:20 AM 58.0°F14.4°C 56.0°F13.3°C 93% 1.2 mph NE1.9 kmh NE 2.3 mph3.7 kmh 26.40 in894.0 mb - 0.00 in0.0 mm 0.39 in9.9 mm
09:25 AM 59.0°F15.0°C 56.7°F13.7°C 92% Calm Calm 1.2 mph1.9 kmh 26.39 in893.7 mb - 0.00 in0.0 mm 0.39 in9.9 mm
09:30 AM 60.0°F15.6°C 57.1°F13.9°C 90% Calm Calm 1.2 mph1.9 kmh 26.39 in893.7 mb - 0.00 in0.0 mm 0.39 in9.9 mm
09:35 AM 60.0°F15.6°C 56.7°F13.7°C 89% Calm Calm 1.2 mph1.9 kmh 26.38 in893.3 mb - 0.00 in0.0 mm 0.39 in9.9 mm
09:40 AM 60.0°F15.6°C 56.4°F13.6°C 88% Calm Calm -- 26.38 in893.3 mb - 0.00 in0.0 mm 0.39 in9.9 mm
09:45 AM 60.0°F15.6°C 56.7°F13.7°C 89% 1.2 mph NNE1.9 kmh NNE 2.3 mph3.7 kmh 26.39 in893.7 mb - 0.00 in0.0 mm 0.39 in9.9 mm
09:50 AM 62.0°F16.7°C 58.4°F14.7°C 88% Calm Calm -- 26.39 in893.7 mb - 0.00 in0.0 mm 0.39 in9.9 mm
09:55 AM 61.0°F16.1°C 57.1°F13.9°C 87% 2.3 mph NE3.7 kmh NE 2.3 mph3.7 kmh 26.38 in893.3 mb - 0.00 in0.0 mm 0.39 in9.9 mm
10:00 AM 61.0°F16.1°C 57.4°F14.1°C 88% 2.3 mph N3.7 kmh N 3.5 mph5.6 kmh 26.39 in893.7 mb - 0.00 in0.0 mm 0.39 in9.9 mm
10:10 AM 60.0°F15.6°C 57.1°F13.9°C 90% 2.3 mph W3.7 kmh W 2.3 mph3.7 kmh 26.40 in894.0 mb - 0.00 in0.0 mm 0.39 in9.9 mm
10:15 AM 59.0°F15.0°C 56.4°F13.6°C 91% 1.2 mph WSW1.9 kmh WSW 3.5 mph5.6 kmh 26.40 in894.0 mb - 0.00 in0.0 mm 0.39 in9.9 mm
10:20 AM 58.0°F14.4°C 56.0°F13.3°C 93% 1.2 mph NE1.9 kmh NE 1.2 mph1.9 kmh 26.40 in894.0 mb - 0.00 in0.0 mm 0.39 in9.9 mm
10:25 AM 58.0°F14.4°C 56.3°F13.5°C 94% 1.2 mph E1.9 kmh E 2.3 mph3.7 kmh 26.41 in894.3 mb - 0.00 in0.0 mm 0.39 in9.9 mm
10:30 AM 58.0°F14.4°C 56.6°F13.7°C 95% 1.2 mph ESE1.9 kmh ESE 2.3 mph3.7 kmh 26.41 in894.3 mb - 0.00 in0.0 mm 0.39 in9.9 mm
10:35 AM 57.0°F13.9°C 55.9°F13.3°C 96% 1.2 mph NE1.9 kmh NE 1.2 mph1.9 kmh 26.41 in894.3 mb - 0.00 in0.0 mm 0.39 in9.9 mm
10:40 AM 57.0°F13.9°C 56.2°F13.4°C 97% Calm Calm -- 26.41 in894.3 mb - 0.00 in0.0 mm 0.39 in9.9 mm
10:45 AM 57.0°F13.9°C 56.2°F13.4°C 97% 2.3 mph W3.7 kmh W 3.5 mph5.6 kmh 26.41 in894.3 mb - 0.00 in0.0 mm 0.39 in9.9 mm
10:50 AM 57.0°F13.9°C 56.2°F13.4°C 97% 2.3 mph W3.7 kmh W 3.5 mph5.6 kmh 26.41 in894.3 mb - 0.00 in0.0 mm 0.39 in9.9 mm
10:55 AM 57.0°F13.9°C 56.2°F13.4°C 97% 2.3 mph NNE3.7 kmh NNE 2.3 mph3.7 kmh 26.42 in894.7 mb - 0.00 in0.0 mm 0.39 in9.9 mm
11:00 AM 57.0°F13.9°C 56.4°F13.6°C 98% 2.3 mph NE3.7 kmh NE 3.5 mph5.6 kmh 26.43 in895.0 mb - 0.00 in0.0 mm 0.39 in9.9 mm
11:10 AM 57.0°F13.9°C 56.4°F13.6°C 98% 2.3 mph NW3.7 kmh NW 3.5 mph5.6 kmh 26.42 in894.7 mb - 0.00 in0.0 mm 0.39 in9.9 mm
11:15 AM 57.0°F13.9°C 56.4°F13.6°C 98% 2.3 mph WNW3.7 kmh WNW 3.5 mph5.6 kmh 26.42 in894.7 mb - 0.00 in0.0 mm 0.39 in9.9 mm
11:20 AM 57.0°F13.9°C 56.4°F13.6°C 98% 1.2 mph E1.9 kmh E 2.3 mph3.7 kmh 26.44 in895.4 mb - 0.00 in0.0 mm 0.39 in9.9 mm
11:25 AM 57.0°F13.9°C 56.4°F13.6°C 98% Calm Calm 1.2 mph1.9 kmh 26.44 in895.4 mb - 0.00 in0.0 mm 0.39 in9.9 mm
11:30 AM 57.0°F13.9°C 56.4°F13.6°C 98% Calm Calm -- 26.45 in895.7 mb - 0.00 in0.0 mm 0.39 in9.9 mm
11:35 AM 57.0°F13.9°C 56.4°F13.6°C 98% Calm Calm 1.2 mph1.9 kmh 26.45 in895.7 mb - 0.01 in0.3 mm 0.40 in10.2 mm
11:40 AM 57.0°F13.9°C 56.4°F13.6°C 98% 1.2 mph ESE1.9 kmh ESE 1.2 mph1.9 kmh 26.45 in895.7 mb - 0.01 in0.3 mm 0.40 in10.2 mm
11:45 AM 57.0°F13.9°C 56.4°F13.6°C 98% Calm Calm -- 26.46 in896.0 mb - 0.02 in0.5 mm 0.41 in10.4 mm
11:50 AM 57.0°F13.9°C 56.4°F13.6°C 98% 1.2 mph NNE1.9 kmh NNE 2.3 mph3.7 kmh 26.48 in896.7 mb - 0.04 in1.0 mm 0.43 in10.9 mm
11:55 AM 56.0°F13.3°C 55.7°F13.2°C 99% Calm Calm -- 26.48 in896.7 mb - 0.10 in2.5 mm 0.49 in12.4 mm
12:00 PM 56.3°F13.5°C 56.0°F13.3°C 99% Calm Calm -- 26.48 in896.7 mb - 0.11 in2.8 mm 0.50 in12.7 mm
12:10 PM 58.0°F14.4°C 57.4°F14.1°C 98% Calm Calm -- 26.47 in896.4 mb - 0.13 in3.3 mm 0.52 in13.2 mm
12:15 PM 58.0°F14.4°C 57.7°F14.3°C 99% Calm Calm -- 26.49 in897.1 mb - 0.13 in3.3 mm 0.52 in13.2 mm
12:20 PM 57.0°F13.9°C 56.2°F13.4°C 97% 1.2 mph NNE1.9 kmh NNE 1.2 mph1.9 kmh 26.49 in897.1 mb - 0.13 in3.3 mm 0.52 in13.2 mm
12:25 PM 57.0°F13.9°C 56.2°F13.4°C 97% 1.2 mph NNE1.9 kmh NNE 1.2 mph1.9 kmh 26.49 in897.1 mb - 0.13 in3.3 mm 0.52 in13.2 mm
12:30 PM 57.0°F13.9°C 56.2°F13.4°C 97% Calm Calm -- 26.49 in897.1 mb - 0.14 in3.6 mm 0.53 in13.5 mm
12:35 PM 57.0°F13.9°C 56.4°F13.6°C 98% Calm Calm -- 26.49 in897.1 mb - 0.14 in3.6 mm 0.53 in13.5 mm
12:40 PM 56.0°F13.3°C 55.2°F12.9°C 97% Calm Calm -- 26.49 in897.1 mb - 0.14 in3.6 mm 0.54 in13.7 mm
12:45 PM 56.6°F13.7°C 56.0°F13.3°C 98% Calm Calm -- 26.50 in897.4 mb - 0.15 in3.8 mm 0.56 in14.2 mm
12:50 PM 57.0°F13.9°C 56.4°F13.6°C 98% Calm Calm -- 26.50 in897.4 mb - 0.13 in3.3 mm 0.56 in14.2 mm
12:55 PM 57.0°F13.9°C 56.4°F13.6°C 98% Calm Calm -- 26.49 in897.1 mb - 0.08 in2.0 mm 0.57 in14.5 mm
01:00 PM 57.0°F13.9°C 56.4°F13.6°C 98% Calm Calm -- 26.51 in897.7 mb - 0.12 in3.0 mm 0.61 in15.5 mm
01:10 PM 56.0°F13.3°C 55.2°F12.9°C 97% Calm Calm 1.2 mph1.9 kmh 26.51 in897.7 mb - 0.13 in3.3 mm 0.65 in16.5 mm
01:15 PM 56.0°F13.3°C 55.4°F13.0°C 98% Calm Calm 1.2 mph1.9 kmh 26.52 in898.1 mb - 0.13 in3.3 mm 0.65 in16.5 mm
01:20 PM 56.0°F13.3°C 55.4°F13.0°C 98% Calm Calm -- 26.52 in898.1 mb - 0.15 in3.8 mm 0.67 in17.0 mm
01:25 PM 56.0°F13.3°C 55.4°F13.0°C 98% Calm Calm -- 26.51 in897.7 mb - 0.21 in5.3 mm 0.73 in18.5 mm
01:30 PM 56.0°F13.3°C 55.4°F13.0°C 98% Calm Calm -- 26.52 in898.1 mb - 0.23 in5.8 mm 0.76 in19.3 mm
01:35 PM 56.0°F13.3°C 55.4°F13.0°C 98% Calm Calm -- 26.52 in898.1 mb - 0.23 in5.8 mm 0.76 in19.3 mm
01:40 PM 56.0°F13.3°C 55.4°F13.0°C 98% Calm Calm -- 26.52 in898.1 mb - 0.24 in6.1 mm 0.78 in19.8 mm
01:45 PM 56.0°F13.3°C 55.7°F13.2°C 99% Calm Calm -- 26.52 in898.1 mb - 0.25 in6.4 mm 0.79 in20.1 mm
01:50 PM 57.0°F13.9°C 56.7°F13.7°C 99% Calm Calm -- 26.52 in898.1 mb - 0.24 in6.1 mm 0.80 in20.3 mm
01:55 PM 57.0°F13.9°C 56.7°F13.7°C 99% Calm Calm -- 26.52 in898.1 mb - 0.23 in5.8 mm 0.80 in20.3 mm
02:00 PM 57.0°F13.9°C 56.7°F13.7°C 99% Calm Calm -- 26.52 in898.1 mb - 0.19 in4.8 mm 0.80 in20.3 mm
02:10 PM 56.0°F13.3°C 55.4°F13.0°C 98% Calm Calm 1.2 mph1.9 kmh 26.52 in898.1 mb - 0.17 in4.3 mm 0.81 in20.6 mm
02:15 PM 56.0°F13.3°C 55.4°F13.0°C 98% Calm Calm -- 26.54 in898.7 mb - 0.16 in4.1 mm 0.81 in20.6 mm
02:20 PM 56.0°F13.3°C 55.4°F13.0°C 98% Calm Calm -- 26.54 in898.7 mb - 0.14 in3.6 mm 0.81 in20.6 mm
02:25 PM 56.0°F13.3°C 55.4°F13.0°C 98% Calm Calm -- 26.54 in898.7 mb - 0.09 in2.3 mm 0.82 in20.8 mm
02:30 PM 57.0°F13.9°C 56.4°F13.6°C 98% Calm Calm -- 26.52 in898.1 mb - 0.06 in1.5 mm 0.82 in20.8 mm
02:35 PM 59.0°F15.0°C 58.4°F14.7°C 98% Calm Calm -- 26.53 in898.4 mb - 0.07 in1.8 mm 0.83 in21.1 mm
02:40 PM 59.7°F15.4°C 59.1°F15.1°C 98% Calm Calm -- 26.52 in898.1 mb - 0.05 in1.3 mm 0.83 in21.1 mm
02:45 PM 60.0°F15.6°C 59.4°F15.2°C 98% Calm Calm -- 26.52 in898.1 mb - 0.04 in1.0 mm 0.83 in21.1 mm
02:50 PM 60.0°F15.6°C 59.1°F15.1°C 97% Calm Calm -- 26.51 in897.7 mb - 0.03 in0.8 mm 0.83 in21.1 mm
02:55 PM 59.0°F15.0°C 57.9°F14.4°C 96% Calm Calm -- 26.51 in897.7 mb - 0.03 in0.8 mm 0.83 in21.1 mm
03:00 PM 58.0°F14.4°C 56.6°F13.7°C 95% Calm Calm -- 26.51 in897.7 mb - 0.03 in0.8 mm 0.83 in21.1 mm
03:10 PM 58.0°F14.4°C 56.9°F13.8°C 96% Calm Calm -- 26.51 in897.7 mb - 0.02 in0.5 mm 0.83 in21.1 mm
03:15 PM 58.0°F14.4°C 57.2°F14.0°C 97% Calm Calm -- 26.50 in897.4 mb - 0.02 in0.5 mm 0.83 in21.1 mm
03:20 PM 59.0°F15.0°C 58.2°F14.6°C 97% Calm Calm -- 26.51 in897.7 mb - 0.02 in0.5 mm 0.83 in21.1 mm
03:25 PM 60.0°F15.6°C 58.9°F14.9°C 96% Calm Calm -- 26.50 in897.4 mb - 0.01 in0.3 mm 0.83 in21.1 mm
03:30 PM 62.0°F16.7°C 60.8°F16.0°C 96% Calm Calm -- 26.50 in897.4 mb - 0.01 in0.3 mm 0.83 in21.1 mm
03:35 PM 62.0°F16.7°C 60.6°F15.9°C 95% Calm Calm 1.2 mph1.9 kmh 26.50 in897.4 mb - 0.00 in0.0 mm 0.83 in21.1 mm
03:40 PM 62.0°F16.7°C 58.4°F14.7°C 88% 1.2 mph SSE1.9 kmh SSE 1.2 mph1.9 kmh 26.50 in897.4 mb - 0.00 in0.0 mm 0.83 in21.1 mm
03:45 PM 61.0°F16.1°C 58.4°F14.7°C 91% Calm Calm -- 26.49 in897.1 mb - 0.00 in0.0 mm 0.83 in21.1 mm
03:50 PM 62.0°F16.7°C 58.4°F14.7°C 88% Calm Calm -- 26.50 in897.4 mb - 0.00 in0.0 mm 0.83 in21.1 mm
03:55 PM 62.0°F16.7°C 59.6°F15.3°C 92% Calm Calm -- 26.50 in897.4 mb - 0.00 in0.0 mm 0.83 in21.1 mm
04:00 PM 62.0°F16.7°C 59.6°F15.3°C 92% Calm Calm -- 26.50 in897.4 mb - 0.00 in0.0 mm 0.83 in21.1 mm
04:10 PM 61.0°F16.1°C 58.0°F14.4°C 90% Calm Calm -- 26.49 in897.1 mb - 0.00 in0.0 mm 0.83 in21.1 mm
04:15 PM 62.0°F16.7°C 58.7°F14.8°C 89% Calm Calm -- 26.49 in897.1 mb - 0.00 in0.0 mm 0.83 in21.1 mm
04:20 PM 62.0°F16.7°C 58.1°F14.5°C 87% Calm Calm -- 26.49 in897.1 mb - 0.00 in0.0 mm 0.83 in21.1 mm
04:25 PM 62.0°F16.7°C 58.1°F14.5°C 87% Calm Calm -- 26.49 in897.1 mb - 0.00 in0.0 mm 0.83 in21.1 mm
04:30 PM 62.0°F16.7°C 57.1°F13.9°C 84% Calm Calm -- 26.49 in897.1 mb - 0.00 in0.0 mm 0.83 in21.1 mm
04:35 PM 62.0°F16.7°C 55.1°F12.8°C 78% Calm Calm 1.2 mph1.9 kmh 26.48 in896.7 mb - 0.00 in0.0 mm 0.83 in21.1 mm
04:40 PM 62.0°F16.7°C 55.8°F13.2°C 80% Calm Calm -- 26.49 in897.1 mb - 0.00 in0.0 mm 0.83 in21.1 mm
04:45 PM 62.0°F16.7°C 56.8°F13.8°C 83% Calm Calm -- 26.49 in897.1 mb - 0.00 in0.0 mm 0.83 in21.1 mm
04:50 PM 62.0°F16.7°C 57.4°F14.1°C 85% Calm Calm -- 26.49 in897.1 mb - 0.00 in0.0 mm 0.83 in21.1 mm
04:55 PM 63.0°F17.2°C 58.7°F14.8°C 86% Calm Calm -- 26.48 in896.7 mb - 0.00 in0.0 mm 0.83 in21.1 mm
05:00 PM 63.0°F17.2°C 58.7°F14.8°C 86% Calm Calm -- 26.48 in896.7 mb - 0.00 in0.0 mm 0.83 in21.1 mm
05:10 PM 62.0°F16.7°C 56.4°F13.6°C 82% Calm Calm -- 26.47 in896.4 mb - 0.00 in0.0 mm 0.83 in21.1 mm
05:15 PM 62.0°F16.7°C 56.8°F13.8°C 83% Calm Calm -- 26.47 in896.4 mb - 0.00 in0.0 mm 0.83 in21.1 mm
05:20 PM 62.0°F16.7°C 56.1°F13.4°C 81% Calm Calm 1.2 mph1.9 kmh 26.47 in896.4 mb - 0.00 in0.0 mm 0.83 in21.1 mm
05:25 PM 63.0°F17.2°C 58.1°F14.5°C 84% 1.2 mph NNE1.9 kmh NNE 2.3 mph3.7 kmh 26.47 in896.4 mb - 0.00 in0.0 mm 0.83 in21.1 mm
05:30 PM 62.0°F16.7°C 57.4°F14.1°C 85% Calm Calm 1.2 mph1.9 kmh 26.47 in896.4 mb - 0.00 in0.0 mm 0.83 in21.1 mm
05:35 PM 62.0°F16.7°C 57.1°F13.9°C 84% 1.2 mph W1.9 kmh W 1.2 mph1.9 kmh 26.48 in896.7 mb - 0.00 in0.0 mm 0.83 in21.1 mm
05:40 PM 62.0°F16.7°C 57.1°F13.9°C 84% 1.2 mph W1.9 kmh W 1.2 mph1.9 kmh 26.48 in896.7 mb - 0.00 in0.0 mm 0.83 in21.1 mm
05:45 PM 60.0°F15.6°C 56.4°F13.6°C 88% 1.2 mph E1.9 kmh E 2.3 mph3.7 kmh 26.49 in897.1 mb - 0.00 in0.0 mm 0.83 in21.1 mm
05:50 PM 59.0°F15.0°C 55.8°F13.2°C 89% Calm Calm -- 26.49 in897.1 mb - 0.00 in0.0 mm 0.83 in21.1 mm
05:55 PM 60.0°F15.6°C 58.6°F14.8°C 95% Calm Calm -- 26.50 in897.4 mb - 0.00 in0.0 mm 0.83 in21.1 mm
06:00 PM 59.1°F15.1°C 57.9°F14.4°C 96% 1.2 mph ESE1.9 kmh ESE 1.2 mph1.9 kmh 26.50 in897.4 mb - 0.02 in0.5 mm 0.85 in21.6 mm
06:10 PM 59.0°F15.0°C 57.9°F14.4°C 96% Calm Calm -- 26.51 in897.7 mb - 0.03 in0.8 mm 0.86 in21.8 mm
06:15 PM 58.0°F14.4°C 56.9°F13.8°C 96% Calm Calm -- 26.52 in898.1 mb - 0.05 in1.3 mm 0.88 in22.4 mm
06:20 PM 58.0°F14.4°C 57.2°F14.0°C 97% Calm Calm -- 26.53 in898.4 mb - 0.07 in1.8 mm 0.90 in22.9 mm
06:25 PM 57.0°F13.9°C 56.2°F13.4°C 97% Calm Calm -- 26.53 in898.4 mb - 0.08 in2.0 mm 0.91 in23.1 mm
06:30 PM 57.0°F13.9°C 56.2°F13.4°C 97% Calm Calm -- 26.53 in898.4 mb - 0.10 in2.5 mm 0.93 in23.6 mm
06:35 PM 57.0°F13.9°C 56.4°F13.6°C 98% Calm Calm -- 26.54 in898.7 mb - 0.10 in2.5 mm 0.93 in23.6 mm
06:40 PM 57.0°F13.9°C 55.9°F13.3°C 96% Calm Calm 1.2 mph1.9 kmh 26.52 in898.1 mb - 0.12 in3.0 mm 0.95 in24.1 mm
06:45 PM 57.0°F13.9°C 56.2°F13.4°C 97% Calm Calm -- 26.52 in898.1 mb - 0.12 in3.0 mm 0.95 in24.1 mm
06:50 PM 56.0°F13.3°C 55.2°F12.9°C 97% Calm Calm -- 26.53 in898.4 mb - 0.12 in3.0 mm 0.95 in24.1 mm
06:55 PM 56.0°F13.3°C 55.2°F12.9°C 97% Calm Calm -- 26.53 in898.4 mb - 0.12 in3.0 mm 0.95 in24.1 mm
07:00 PM 56.0°F13.3°C 55.4°F13.0°C 98% Calm Calm -- 26.53 in898.4 mb - 0.10 in2.5 mm 0.95 in24.1 mm
07:10 PM 56.0°F13.3°C 55.2°F12.9°C 97% Calm Calm -- 26.53 in898.4 mb - 0.09 in2.3 mm 0.95 in24.1 mm
07:15 PM 60.0°F15.6°C 58.6°F14.8°C 95% Calm Calm -- 26.50 in897.4 mb - 0.07 in1.8 mm 0.95 in24.1 mm
07:20 PM 57.3°F14.1°C 56.5°F13.6°C 97% Calm Calm -- 26.52 in898.1 mb - 0.17 in4.3 mm 1.07 in27.2 mm
07:25 PM 56.0°F13.3°C 55.4°F13.0°C 98% Calm Calm -- 26.53 in898.4 mb - 0.16 in4.1 mm 1.07 in27.2 mm
07:30 PM 56.0°F13.3°C 55.2°F12.9°C 97% Calm Calm -- 26.53 in898.4 mb - 0.16 in4.1 mm 1.07 in27.2 mm
07:35 PM 55.0°F12.8°C 54.2°F12.3°C 97% Calm Calm -- 26.53 in898.4 mb - 0.14 in3.6 mm 1.07 in27.2 mm
07:40 PM 55.0°F12.8°C 54.2°F12.3°C 97% Calm Calm -- 26.53 in898.4 mb - 0.12 in3.0 mm 1.07 in27.2 mm
07:45 PM 55.9°F13.3°C 55.1°F12.8°C 97% Calm Calm -- 26.53 in898.4 mb - 0.12 in3.0 mm 1.07 in27.2 mm
07:50 PM 56.0°F13.3°C 55.2°F12.9°C 97% Calm Calm -- 26.53 in898.4 mb - 0.12 in3.0 mm 1.07 in27.2 mm
07:55 PM 55.0°F12.8°C 54.4°F12.4°C 98% Calm Calm -- 26.54 in898.7 mb - 0.12 in3.0 mm 1.07 in27.2 mm
08:00 PM 54.0°F12.2°C 53.2°F11.8°C 97% Calm Calm -- 26.54 in898.7 mb - 0.12 in3.0 mm 1.07 in27.2 mm
08:10 PM 53.0°F11.7°C 52.2°F11.2°C 97% Calm Calm -- 26.54 in898.7 mb - 0.12 in3.0 mm 1.07 in27.2 mm
08:15 PM 53.0°F11.7°C 52.2°F11.2°C 97% Calm Calm -- 26.54 in898.7 mb - 0.12 in3.0 mm 1.07 in27.2 mm
08:20 PM 53.0°F11.7°C 52.2°F11.2°C 97% Calm Calm -- 26.53 in898.4 mb - 0.12 in3.0 mm 1.07 in27.2 mm
08:25 PM 53.0°F11.7°C 52.5°F11.4°C 98% Calm Calm -- 26.54 in898.7 mb - 0.00 in0.0 mm 1.07 in27.2 mm
08:30 PM 52.0°F11.1°C 51.5°F10.8°C 98% Calm Calm -- 26.55 in899.1 mb - 0.00 in0.0 mm 1.07 in27.2 mm
08:35 PM 53.0°F11.7°C 52.5°F11.4°C 98% Calm Calm -- 26.54 in898.7 mb - 0.00 in0.0 mm 1.07 in27.2 mm
08:40 PM 52.2°F11.2°C 51.7°F10.9°C 98% Calm Calm -- 26.54 in898.7 mb - 0.00 in0.0 mm 1.07 in27.2 mm
08:45 PM 52.0°F11.1°C 51.5°F10.8°C 98% Calm Calm -- 26.54 in898.7 mb - 0.00 in0.0 mm 1.07 in27.2 mm
08:50 PM 52.0°F11.1°C 51.5°F10.8°C 98% Calm Calm -- 26.54 in898.7 mb - 0.05 in1.3 mm 1.12 in28.4 mm
08:55 PM 52.0°F11.1°C 51.5°F10.8°C 98% Calm Calm -- 26.55 in899.1 mb - 0.05 in1.3 mm 1.12 in28.4 mm
09:00 PM 52.0°F11.1°C 51.5°F10.8°C 98% Calm Calm -- 26.54 in898.7 mb - 0.05 in1.3 mm 1.12 in28.4 mm
09:10 PM 51.0°F10.6°C 50.5°F10.3°C 98% Calm Calm -- 26.55 in899.1 mb - 0.05 in1.3 mm 1.12 in28.4 mm
09:15 PM 51.0°F10.6°C 50.5°F10.3°C 98% Calm Calm -- 26.55 in899.1 mb - 0.05 in1.3 mm 1.12 in28.4 mm
09:20 PM 51.0°F10.6°C 50.5°F10.3°C 98% Calm Calm -- 26.55 in899.1 mb - 0.05 in1.3 mm 1.12 in28.4 mm
09:25 PM 51.0°F10.6°C 50.5°F10.3°C 98% Calm Calm -- 26.55 in899.1 mb - 0.05 in1.3 mm 1.12 in28.4 mm
09:30 PM 51.0°F10.6°C 50.7°F10.4°C 99% Calm Calm -- 26.55 in899.1 mb - 0.05 in1.3 mm 1.12 in28.4 mm
09:35 PM 51.0°F10.6°C 50.7°F10.4°C 99% Calm Calm -- 26.55 in899.1 mb - 0.05 in1.3 mm 1.12 in28.4 mm
09:40 PM 51.0°F10.6°C 50.5°F10.3°C 98% Calm Calm -- 26.56 in899.4 mb - 0.05 in1.3 mm 1.12 in28.4 mm
09:45 PM 51.0°F10.6°C 50.7°F10.4°C 99% Calm Calm -- 26.55 in899.1 mb - 0.05 in1.3 mm 1.12 in28.4 mm
09:50 PM 51.0°F10.6°C 50.7°F10.4°C 99% Calm Calm -- 26.55 in899.1 mb - 0.00 in0.0 mm 1.12 in28.4 mm
09:55 PM 51.0°F10.6°C 50.7°F10.4°C 99% Calm Calm -- 26.56 in899.4 mb - 0.00 in0.0 mm 1.12 in28.4 mm
10:00 PM 51.0°F10.6°C 50.7°F10.4°C 99% Calm Calm -- 26.55 in899.1 mb - 0.00 in0.0 mm 1.12 in28.4 mm
10:10 PM 51.0°F10.6°C 50.7°F10.4°C 99% Calm Calm -- 26.56 in899.4 mb - 0.00 in0.0 mm 1.12 in28.4 mm
10:15 PM 58.0°F14.4°C 56.9°F13.8°C 96% Calm Calm -- 26.52 in898.1 mb - 0.00 in0.0 mm 1.12 in28.4 mm
10:20 PM 52.4°F11.3°C 51.9°F11.1°C 98% Calm Calm -- 26.55 in899.1 mb - 0.08 in2.0 mm 1.20 in30.5 mm
10:25 PM 51.0°F10.6°C 50.7°F10.4°C 99% Calm Calm -- 26.56 in899.4 mb - 0.08 in2.0 mm 1.20 in30.5 mm
10:30 PM 51.0°F10.6°C 50.7°F10.4°C 99% Calm Calm -- 26.55 in899.1 mb - 0.08 in2.0 mm 1.20 in30.5 mm
10:35 PM 51.0°F10.6°C 50.7°F10.4°C 99% Calm Calm -- 26.55 in899.1 mb - 0.08 in2.0 mm 1.20 in30.5 mm
10:40 PM 51.0°F10.6°C 50.7°F10.4°C 99% Calm Calm -- 26.55 in899.1 mb - 0.08 in2.0 mm 1.20 in30.5 mm
10:45 PM 51.0°F10.6°C 50.7°F10.4°C 99% Calm Calm -- 26.56 in899.4 mb - 0.08 in2.0 mm 1.20 in30.5 mm
10:50 PM 51.0°F10.6°C 50.7°F10.4°C 99% Calm Calm -- 26.56 in899.4 mb - 0.08 in2.0 mm 1.20 in30.5 mm
10:55 PM 51.0°F10.6°C 50.7°F10.4°C 99% Calm Calm -- 26.55 in899.1 mb - 0.08 in2.0 mm 1.20 in30.5 mm
11:00 PM 51.0°F10.6°C 50.7°F10.4°C 99% Calm Calm -- 26.55 in899.1 mb - 0.08 in2.0 mm 12.89 in327.4 mm
11:10 PM 51.0°F10.6°C 50.7°F10.4°C 99% Calm Calm -- 26.55 in899.1 mb - 0.63 in16.0 mm 0.55 in14.0 mm
11:15 PM 51.0°F10.6°C 50.7°F10.4°C 99% Calm Calm -- 26.55 in899.1 mb - 0.63 in16.0 mm 0.55 in14.0 mm
11:20 PM 51.0°F10.6°C 50.7°F10.4°C 99% Calm Calm -- 26.56 in899.4 mb - 0.63 in16.0 mm 0.55 in14.0 mm
11:25 PM 51.0°F10.6°C 50.7°F10.4°C 99% Calm Calm -- 26.55 in899.1 mb - 0.55 in14.0 mm 0.55 in14.0 mm
11:30 PM 51.0°F10.6°C 50.7°F10.4°C 99% Calm Calm -- 26.55 in899.1 mb - 0.55 in14.0 mm 0.55 in14.0 mm
11:35 PM 51.0°F10.6°C 50.7°F10.4°C 99% Calm Calm -- 26.55 in899.1 mb - 0.55 in14.0 mm 0.55 in14.0 mm
11:40 PM 51.0°F10.6°C 50.7°F10.4°C 99% Calm Calm -- 26.56 in899.4 mb - 0.55 in14.0 mm 0.55 in14.0 mm
11:45 PM 51.0°F10.6°C 50.7°F10.4°C 99% Calm Calm -- 26.56 in899.4 mb - 0.55 in14.0 mm 0.55 in14.0 mm
11:50 PM 51.0°F10.6°C 50.7°F10.4°C 99% Calm Calm -- 26.55 in899.1 mb - 0.55 in14.0 mm 0.55 in14.0 mm
11:55 PM 50.0°F10.0°C 49.7°F9.8°C 99% Calm Calm -- 26.55 in899.1 mb - 0.55 in14.0 mm 0.55 in14.0 mm